Terminal Aerodrome Forecast
Issued by NWS

Home | Current Version | Previous Version | Graphics & Text | Print | Product List | Glossary On
Versions: 1 2 3 4 5 6 7 8 9 10 11 12 13 14 15 16
000
FTUS43 KIWX 181100 RRA
TAFSBN
TAF
KSBN 181139Z 1812/1912 33014G20KT P6SM VCSH OVC025
     FM181400 33014G20KT P6SM -SHRA OVC025
     FM181900 34014G22KT P6SM BKN025
     FM182300 35010KT P6SM BKN030
     FM190500 VRB03KT P6SM SCT030=

USA.gov is the U.S. government's official web portal to all federal, state and local government web resources and services.